ヴィエンチャン の空港の天気 - METARとTAF

ワットタイ国際空港 ( VLVT / VTE ) - ラオス ヴィエンチャン
飛行場実況気象(Metar)
観測時間03/09 14:30 ICT (03/09 07:30 UTC)
風向・風速南 3m/s
視程8000m
天気現象
全天の4割程度の雲 雲底高度 610m
気温32℃
湿度52%
気圧1011hPa
METARVLVT 090730Z 18006KT 8000 SCT020 32/21 Q1011 NOSIG
過去の天気等 Google飛行場航空写真 Wunderground天気予報

過去48時間のMETAR

飛行場予報(TAF)
発表時間: 3/09 12:00 ICT (3/09 05:00 UTC)
予報対象時間: 9日13時 ICT ~ 10日13時 ICT
風向・風速南 2m/s
視程8000m
少しの雲 雲底高度 610m
少しの雲 雲底高度 6100m
TAF VLVT 090500Z 0906/1006 18004KT 8000 FEW020 FEW200